createdAt,value
2019-05-10T00:01:14.723Z,8.00
2019-05-10T00:04:03.687Z,8.00
2019-05-10T00:06:52.526Z,8.00
2019-05-10T00:09:22.706Z,8.10
2019-05-10T00:12:07.006Z,8.10
2019-05-10T00:14:55.133Z,8.10
2019-05-10T00:17:26.446Z,8.10
2019-05-10T00:19:57.639Z,8.10
2019-05-10T00:22:28.619Z,8.10
2019-05-10T00:25:04.578Z,8.10
2019-05-10T00:27:32.966Z,8.10
2019-05-10T00:30:04.382Z,8.10
2019-05-10T00:32:35.790Z,8.10
2019-05-10T00:35:07.487Z,8.10
2019-05-10T00:37:38.494Z,8.20
2019-05-10T00:40:09.976Z,8.10
2019-05-10T00:42:41.478Z,8.20
2019-05-10T00:45:12.906Z,8.20
2019-05-10T00:47:44.206Z,8.20
2019-05-10T00:50:15.554Z,8.20
2019-05-10T00:52:46.534Z,8.20
2019-05-10T00:55:19.245Z,8.20
2019-05-10T00:57:50.862Z,8.20
2019-05-10T01:00:22.088Z,8.20
2019-05-10T01:02:52.946Z,8.20
2019-05-10T01:05:24.278Z,8.20
2019-05-10T01:07:55.378Z,8.20
2019-05-10T01:10:26.567Z,8.20
2019-05-10T01:12:58.066Z,8.20
2019-05-10T01:15:29.166Z,8.20
2019-05-10T01:18:01.210Z,8.20
2019-05-10T01:20:33.358Z,8.10
2019-05-10T01:23:04.770Z,8.20
2019-05-10T01:25:36.049Z,8.10
2019-05-10T01:28:07.669Z,8.10
2019-05-10T01:30:39.058Z,8.10
2019-05-10T01:33:10.566Z,8.00
2019-05-10T01:35:41.914Z,8.00
2019-05-10T01:38:13.093Z,8.00
2019-05-10T01:40:45.606Z,7.90
2019-05-10T01:43:16.559Z,7.90
2019-05-10T01:45:47.592Z,7.90
2019-05-10T01:48:18.694Z,7.90
2019-05-10T01:50:49.875Z,7.80
2019-05-10T01:53:20.978Z,7.80
2019-05-10T01:55:53.068Z,7.80
2019-05-10T01:58:24.114Z,7.80
2019-05-10T02:00:55.259Z,7.70
2019-05-10T02:03:26.015Z,7.70
2019-05-10T02:05:57.107Z,7.70
2019-05-10T02:08:28.007Z,7.60
2019-05-10T02:10:59.075Z,7.60
2019-05-10T02:13:30.339Z,7.60
2019-05-10T02:16:01.862Z,7.60
2019-05-10T02:18:33.207Z,7.60
2019-05-10T02:21:05.423Z,7.60
2019-05-10T02:23:37.522Z,7.60
2019-05-10T02:26:10.066Z,7.60
2019-05-10T02:28:41.598Z,7.50
2019-05-10T02:31:13.856Z,7.60
2019-05-10T02:33:45.076Z,7.50
2019-05-10T02:36:16.540Z,7.60
2019-05-10T02:38:48.627Z,7.60
2019-05-10T02:41:19.792Z,7.60
2019-05-10T02:43:50.987Z,7.60
2019-05-10T02:46:22.342Z,7.60
2019-05-10T02:48:53.849Z,7.60
2019-05-10T02:51:25.278Z,7.70
2019-05-10T02:53:56.595Z,7.70
2019-05-10T02:56:31.286Z,7.70
2019-05-10T02:59:02.067Z,7.70
2019-05-10T03:01:33.225Z,7.80
2019-05-10T03:04:04.202Z,7.80
2019-05-10T03:06:36.453Z,7.90
2019-05-10T03:09:09.164Z,7.90
2019-05-10T03:11:50.094Z,7.90
2019-05-10T03:14:21.408Z,8.00
2019-05-10T03:16:53.103Z,8.00
2019-05-10T03:19:24.267Z,8.00
2019-05-10T03:22:06.300Z,8.10
2019-05-10T03:24:37.407Z,8.10
2019-05-10T03:27:08.611Z,8.10
2019-05-10T03:29:39.719Z,8.10
2019-05-10T03:32:10.813Z,8.20
2019-05-10T03:34:41.934Z,8.20
2019-05-10T03:37:12.997Z,8.20
2019-05-10T03:39:43.997Z,8.20
2019-05-10T03:42:15.248Z,8.30
2019-05-10T03:44:46.155Z,8.30
2019-05-10T03:47:17.092Z,8.40
2019-05-10T03:49:48.087Z,8.40
2019-05-10T03:52:19.212Z,8.50
2019-05-10T03:54:50.543Z,8.50
2019-05-10T03:57:21.480Z,8.60
2019-05-10T03:59:52.921Z,8.70
2019-05-10T04:02:24.135Z,8.70
2019-05-10T04:04:55.079Z,8.80
2019-05-10T04:07:26.179Z,8.90
2019-05-10T04:09:57.330Z,9.00
2019-05-10T04:12:28.669Z,9.00
2019-05-10T04:15:00.024Z,9.10
2019-05-10T04:17:31.067Z,9.10
2019-05-10T04:20:02.395Z,9.10
2019-05-10T04:22:33.803Z,9.10
2019-05-10T04:25:05.324Z,9.10
2019-05-10T04:27:36.699Z,9.10
2019-05-10T04:30:08.229Z,9.20
2019-05-10T04:32:39.234Z,9.20
2019-05-10T04:35:10.965Z,9.20
2019-05-10T04:37:42.512Z,9.30
2019-05-10T04:40:13.871Z,9.30
2019-05-10T04:42:45.135Z,9.40
2019-05-10T04:45:16.867Z,9.50
2019-05-10T04:47:48.188Z,9.50
2019-05-10T04:50:19.259Z,9.60
2019-05-10T04:52:50.576Z,9.70
2019-05-10T04:55:21.692Z,9.70
2019-05-10T04:57:53.127Z,9.80
2019-05-10T05:00:24.167Z,9.80
2019-05-10T05:02:55.343Z,9.90
2019-05-10T05:05:26.614Z,9.90
2019-05-10T05:07:57.575Z,10.00
2019-05-10T05:10:28.682Z,10.00
2019-05-10T05:12:59.623Z,10.10
2019-05-10T05:15:30.697Z,10.10
2019-05-10T05:18:01.626Z,10.20
2019-05-10T05:20:32.658Z,10.30
2019-05-10T05:23:03.630Z,10.30
2019-05-10T05:25:40.407Z,10.40
2019-05-10T05:28:08.703Z,10.40
2019-05-10T05:30:39.792Z,10.50
2019-05-10T05:33:10.679Z,10.50
2019-05-10T05:35:42.347Z,10.60
2019-05-10T05:38:13.203Z,10.60
2019-05-10T05:40:44.506Z,10.70
2019-05-10T05:43:15.635Z,10.80
2019-05-10T05:45:46.814Z,10.90
2019-05-10T05:48:21.323Z,11.00
2019-05-10T05:50:51.244Z,11.20
2019-05-10T05:53:22.745Z,11.40
2019-05-10T05:55:53.834Z,11.60
2019-05-10T05:58:27.153Z,11.70
2019-05-10T06:00:57.852Z,11.90
2019-05-10T06:03:29.677Z,11.90
2019-05-10T06:06:01.460Z,12.00
2019-05-10T06:08:32.495Z,12.00
2019-05-10T06:11:04.138Z,12.10
2019-05-10T06:13:35.454Z,12.10
2019-05-10T06:16:13.229Z,12.20
2019-05-10T06:18:41.657Z,12.20
2019-05-10T06:21:11.987Z,12.30
2019-05-10T06:23:43.011Z,12.40
2019-05-10T06:26:20.974Z,12.50
2019-05-10T06:29:04.500Z,12.60
2019-05-10T06:31:18.455Z,12.70
2019-05-10T06:33:49.223Z,12.80
2019-05-10T06:36:20.284Z,12.90
2019-05-10T06:38:51.643Z,13.00
2019-05-10T06:41:22.758Z,13.10
2019-05-10T06:43:54.115Z,13.20
2019-05-10T06:46:29.322Z,13.30
2019-05-10T06:49:07.141Z,13.30
2019-05-10T06:51:31.255Z,13.50
2019-05-10T06:54:02.565Z,13.60
2019-05-10T06:56:33.699Z,13.70
2019-05-10T06:59:13.549Z,13.90
2019-05-10T07:01:38.493Z,14.10
2019-05-10T07:04:10.527Z,14.40
2019-05-10T07:06:41.660Z,14.70
2019-05-10T07:09:13.273Z,15.00
2019-05-10T07:11:44.255Z,15.30
2019-05-10T07:14:15.431Z,15.50
2019-05-10T07:16:46.936Z,15.80
2019-05-10T07:19:18.151Z,16.00
2019-05-10T07:21:51.199Z,16.20
2019-05-10T07:24:24.921Z,16.30
2019-05-10T07:26:56.520Z,16.40
2019-05-10T07:29:30.343Z,16.70
2019-05-10T07:32:01.494Z,17.20
2019-05-10T07:34:33.323Z,17.70
2019-05-10T07:37:05.011Z,18.20
2019-05-10T07:39:36.215Z,18.70
2019-05-10T07:42:09.078Z,19.00
2019-05-10T07:44:41.395Z,19.20
2019-05-10T07:47:13.735Z,19.50
2019-05-10T07:49:44.646Z,19.90
2019-05-10T07:52:15.975Z,20.30
2019-05-10T07:54:47.759Z,20.90
2019-05-10T07:57:24.741Z,21.50
2019-05-10T07:59:57.625Z,22.00
2019-05-10T08:02:25.902Z,22.60
2019-05-10T08:04:58.471Z,23.00
2019-05-10T08:07:29.535Z,23.50
2019-05-10T08:10:00.914Z,23.90
2019-05-10T08:12:35.317Z,24.30
2019-05-10T08:15:08.574Z,24.70
2019-05-10T08:17:45.350Z,25.00
2019-05-10T08:20:20.348Z,25.20
2019-05-10T08:22:46.300Z,25.40
2019-05-10T08:25:17.183Z,25.30
2019-05-10T08:27:50.445Z,25.40
2019-05-10T08:30:42.615Z,25.30
2019-05-10T08:33:14.491Z,25.40
2019-05-10T08:35:46.496Z,25.30
2019-05-10T08:38:17.341Z,25.10
2019-05-10T08:40:48.839Z,24.80
2019-05-10T08:43:21.824Z,24.70
2019-05-10T08:45:52.984Z,24.40
2019-05-10T08:48:23.958Z,24.10
2019-05-10T08:50:57.634Z,23.80
2019-05-10T08:53:27.595Z,23.60
2019-05-10T08:55:59.218Z,23.70
2019-05-10T09:01:27.527Z,24.60
2019-05-10T09:03:59.017Z,25.20
2019-05-10T09:06:24.933Z,25.60
2019-05-10T09:09:01.562Z,25.90
2019-05-10T09:11:28.623Z,25.90
2019-05-10T09:14:03.030Z,25.80
2019-05-10T09:16:39.499Z,25.70
2019-05-10T09:19:07.071Z,25.30
2019-05-10T09:21:40.898Z,25.00
2019-05-10T09:24:12.853Z,24.80
2019-05-10T09:26:46.978Z,24.60
2019-05-10T09:29:16.874Z,24.20
2019-05-10T09:31:50.652Z,24.00
2019-05-10T09:34:23.826Z,23.80
2019-05-10T09:36:53.964Z,23.70
2019-05-10T09:39:25.375Z,23.80
2019-05-10T09:41:56.023Z,24.20
2019-05-10T09:44:26.822Z,24.80
2019-05-10T09:46:58.160Z,25.30
2019-05-10T09:49:29.323Z,25.90
2019-05-10T09:52:04.606Z,26.20
2019-05-10T09:54:33.706Z,26.20
2019-05-10T09:57:05.247Z,26.20
2019-05-10T09:59:36.894Z,26.30
2019-05-10T10:02:14.354Z,26.30
2019-05-10T10:04:40.877Z,26.30
2019-05-10T10:07:13.387Z,26.70
2019-05-10T10:09:45.656Z,27.10
2019-05-10T10:12:17.628Z,27.60
2019-05-10T10:14:48.639Z,28.10
2019-05-10T10:17:20.558Z,28.50
2019-05-10T10:19:51.555Z,28.70
2019-05-10T10:22:22.535Z,28.80
2019-05-10T10:24:55.143Z,28.90
2019-05-10T10:27:34.303Z,28.70
2019-05-10T10:29:59.059Z,28.30
2019-05-10T10:32:33.826Z,27.90
2019-05-10T10:35:02.747Z,27.40
2019-05-10T10:37:33.931Z,26.70
2019-05-10T10:40:07.861Z,26.30
2019-05-10T10:42:38.019Z,25.90
2019-05-10T10:45:11.218Z,25.70
2019-05-10T10:47:42.908Z,25.50
2019-05-10T10:50:14.367Z,25.10
2019-05-10T10:52:47.575Z,24.70
2019-05-10T10:55:54.384Z,24.20
2019-05-10T10:58:22.174Z,23.50
2019-05-10T11:00:53.993Z,22.80
2019-05-10T11:03:30.539Z,22.20
2019-05-10T11:05:58.994Z,21.60
2019-05-10T11:08:32.971Z,21.10
2019-05-10T11:11:04.263Z,20.70
2019-05-10T11:13:43.880Z,20.30
2019-05-10T11:16:15.109Z,20.10
2019-05-10T11:18:42.032Z,19.90
2019-05-10T11:21:14.298Z,19.60
2019-05-10T11:23:45.515Z,19.50
2019-05-10T11:26:17.671Z,19.40
2019-05-10T11:28:48.729Z,19.40
2019-05-10T11:31:21.391Z,19.60
2019-05-10T11:33:58.555Z,19.90
2019-05-10T11:36:26.255Z,20.20
2019-05-10T11:38:58.759Z,20.30
2019-05-10T11:41:31.444Z,20.40
2019-05-10T11:44:05.517Z,20.40
2019-05-10T11:46:35.720Z,20.30
2019-05-10T11:49:07.787Z,20.30
2019-05-10T11:51:41.314Z,20.30
2019-05-10T11:54:12.227Z,20.50
2019-05-10T11:56:44.036Z,20.70
2019-05-10T11:59:16.486Z,20.90
2019-05-10T12:01:54.835Z,20.90
2019-05-10T12:04:28.843Z,21.00
2019-05-10T12:06:55.025Z,21.30
2019-05-10T12:09:27.687Z,21.80
2019-05-10T12:12:03.019Z,22.10
2019-05-10T12:14:31.495Z,22.40
2019-05-10T12:17:06.495Z,22.50
2019-05-10T12:19:44.550Z,22.50
2019-05-10T12:22:15.035Z,22.40
2019-05-10T12:24:53.958Z,22.20
2019-05-10T12:27:25.367Z,22.20
2019-05-10T12:29:55.494Z,22.40
2019-05-10T12:32:21.334Z,22.70
2019-05-10T12:34:56.538Z,23.20
2019-05-10T12:37:27.515Z,23.70
2019-05-10T12:40:06.234Z,24.10
2019-05-10T12:42:31.742Z,24.40
2019-05-10T12:45:02.760Z,24.60
2019-05-10T12:47:33.890Z,24.60
2019-05-10T12:50:05.503Z,24.50
2019-05-10T12:52:36.667Z,24.50
2019-05-10T12:55:07.474Z,24.50
2019-05-10T12:57:38.259Z,24.60
2019-05-10T13:00:13.046Z,25.20
2019-05-10T13:02:44.797Z,26.00
2019-05-10T13:05:17.224Z,26.90
2019-05-10T13:07:48.206Z,27.60
2019-05-10T13:10:20.673Z,28.10
2019-05-10T13:12:51.800Z,28.20
2019-05-10T13:15:24.923Z,28.00
2019-05-10T13:17:55.543Z,27.60
2019-05-10T13:20:30.742Z,27.00
2019-05-10T13:22:59.201Z,26.30
2019-05-10T13:25:30.287Z,25.40
2019-05-10T13:28:01.487Z,24.30
2019-05-10T13:30:32.752Z,23.30
2019-05-10T13:33:04.108Z,22.40
2019-05-10T13:35:35.459Z,21.60
2019-05-10T13:38:06.643Z,20.90
2019-05-10T13:40:45.925Z,20.40
2019-05-10T13:43:11.175Z,20.00
2019-05-10T13:45:41.989Z,19.80
2019-05-10T13:48:12.811Z,20.00
2019-05-10T13:50:44.439Z,20.50
2019-05-10T13:53:20.917Z,21.30
2019-05-10T13:55:49.018Z,22.00
2019-05-10T13:58:20.834Z,22.40
2019-05-10T14:00:52.359Z,22.70
2019-05-10T14:03:24.458Z,22.70
2019-05-10T14:05:56.363Z,22.70
2019-05-10T14:08:28.219Z,22.70
2019-05-10T14:11:01.515Z,22.50
2019-05-10T14:13:35.600Z,22.30
2019-05-10T14:16:05.850Z,22.10
2019-05-10T14:18:37.323Z,21.80
2019-05-10T14:21:08.499Z,21.70
2019-05-10T14:23:39.945Z,21.40
2019-05-10T14:26:16.462Z,21.10
2019-05-10T14:28:47.277Z,21.00
2019-05-10T14:31:17.592Z,20.80
2019-05-10T14:34:14.233Z,20.60
2019-05-10T14:36:21.163Z,20.50
2019-05-10T14:38:54.552Z,20.40
2019-05-10T14:41:26.332Z,20.30
2019-05-10T14:43:57.979Z,20.20
2019-05-10T14:46:29.096Z,20.10
2019-05-10T14:49:09.222Z,20.00
2019-05-10T14:51:49.680Z,19.90
2019-05-10T14:54:08.737Z,19.90
2019-05-10T14:56:38.835Z,19.90
2019-05-10T14:59:10.587Z,19.80
2019-05-10T15:01:43.048Z,19.70
2019-05-10T15:04:20.130Z,19.60
2019-05-10T15:06:47.188Z,19.50
2019-05-10T15:09:21.986Z,19.40
2019-05-10T15:11:52.133Z,19.40
2019-05-10T15:14:23.619Z,19.40
2019-05-10T15:16:56.049Z,19.30
2019-05-10T15:19:30.968Z,19.40
2019-05-10T15:22:00.407Z,19.40
2019-05-10T15:24:31.652Z,19.40
2019-05-10T15:27:02.635Z,19.40
2019-05-10T15:29:34.610Z,19.40
2019-05-10T15:32:05.839Z,19.40
2019-05-10T15:34:37.823Z,19.40
2019-05-10T15:37:09.438Z,19.40
2019-05-10T15:39:41.826Z,19.40
2019-05-10T15:42:12.874Z,19.30
2019-05-10T15:44:44.935Z,19.30
2019-05-10T15:47:20.632Z,19.20
2019-05-10T15:49:49.115Z,19.20
2019-05-10T15:52:23.457Z,19.10
2019-05-10T15:54:54.385Z,19.20
2019-05-10T15:57:25.625Z,19.10
2019-05-10T15:59:59.089Z,19.00
2019-05-10T16:02:29.827Z,19.00
2019-05-10T16:05:01.596Z,18.90
2019-05-10T16:07:33.898Z,18.90
2019-05-10T16:10:05.363Z,18.80
2019-05-10T16:12:37.673Z,18.80
2019-05-10T16:15:13.654Z,18.80
2019-05-10T16:17:42.683Z,18.70
2019-05-10T16:20:13.662Z,18.70
2019-05-10T16:22:44.491Z,18.70
2019-05-10T16:25:16.041Z,18.60
2019-05-10T16:27:47.292Z,18.60
2019-05-10T16:30:20.331Z,18.50
2019-05-10T16:32:51.579Z,18.30
2019-05-10T16:35:22.510Z,18.20
2019-05-10T16:37:53.861Z,18.10
2019-05-10T16:40:25.119Z,18.00
2019-05-10T16:42:56.151Z,17.80
2019-05-10T16:45:27.823Z,17.70
2019-05-10T16:47:59.059Z,17.60
2019-05-10T16:50:31.631Z,17.60
2019-05-10T16:53:05.956Z,17.50
2019-05-10T16:55:41.063Z,17.50
2019-05-10T16:58:15.029Z,17.50
2019-05-10T17:00:46.169Z,17.40
2019-05-10T17:03:20.490Z,17.40
2019-05-10T17:05:53.594Z,17.40
2019-05-10T17:08:23.101Z,17.40
2019-05-10T17:10:53.924Z,17.40
2019-05-10T17:13:25.211Z,17.30
2019-05-10T17:15:56.327Z,17.30
2019-05-10T17:18:28.430Z,17.30
2019-05-10T17:20:59.727Z,17.30
2019-05-10T17:23:31.039Z,17.30
2019-05-10T17:26:02.523Z,17.30
2019-05-10T17:28:35.438Z,17.20
2019-05-10T17:31:07.731Z,17.20
2019-05-10T17:33:42.814Z,17.10
2019-05-10T17:36:14.562Z,17.00
2019-05-10T17:38:47.223Z,17.00
2019-05-10T17:41:19.344Z,16.90
2019-05-10T17:43:50.585Z,16.80
2019-05-10T17:46:21.922Z,16.70
2019-05-10T17:48:53.130Z,16.60
2019-05-10T17:51:24.279Z,16.50
2019-05-10T17:54:01.672Z,16.40
2019-05-10T17:56:32.927Z,16.30
2019-05-10T17:59:05.987Z,16.20
2019-05-10T18:01:34.027Z,16.00
2019-05-10T18:04:06.223Z,15.80
2019-05-10T18:06:37.539Z,15.70
2019-05-10T18:09:09.681Z,15.50
2019-05-10T18:11:43.118Z,15.40
2019-05-10T18:14:17.985Z,15.20
2019-05-10T18:16:47.899Z,15.10
2019-05-10T18:19:24.792Z,15.00
2019-05-10T18:21:54.894Z,14.80
2019-05-10T18:24:30.081Z,14.70
2019-05-10T18:26:58.979Z,14.60
2019-05-10T18:29:30.407Z,14.50
2019-05-10T18:32:02.347Z,14.30
2019-05-10T18:34:35.482Z,14.20
2019-05-10T18:37:06.395Z,14.10
2019-05-10T18:39:37.374Z,13.90
2019-05-10T18:42:08.303Z,13.90
2019-05-10T18:44:39.528Z,13.70
2019-05-10T18:47:10.823Z,13.60
2019-05-10T18:49:42.222Z,13.50
2019-05-10T18:52:13.572Z,13.50
2019-05-10T18:54:44.966Z,13.40
2019-05-10T18:57:19.268Z,13.30
2019-05-10T18:59:48.831Z,13.30
2019-05-10T19:02:20.169Z,13.20
2019-05-10T19:04:54.101Z,13.20
2019-05-10T19:07:25.255Z,13.10
2019-05-10T19:09:57.112Z,13.10
2019-05-10T19:12:29.705Z,13.00
2019-05-10T19:15:02.441Z,13.00
2019-05-10T19:17:34.344Z,12.90
2019-05-10T19:20:09.338Z,12.90
2019-05-10T19:22:41.338Z,12.80
2019-05-10T19:25:14.463Z,12.80
2019-05-10T19:27:50.526Z,12.70
2019-05-10T19:30:20.608Z,12.70
2019-05-10T19:32:56.305Z,12.60
2019-05-10T19:35:24.647Z,12.60
2019-05-10T19:37:56.126Z,12.60
2019-05-10T19:40:27.265Z,12.60
2019-05-10T19:42:58.911Z,12.50
2019-05-10T19:45:31.169Z,12.50
2019-05-10T19:48:05.765Z,12.50
2019-05-10T19:50:35.623Z,12.40
2019-05-10T19:53:07.344Z,12.40
2019-05-10T19:55:38.311Z,12.40
2019-05-10T19:58:09.800Z,12.40
2019-05-10T20:00:42.192Z,12.40
2019-05-10T20:03:13.899Z,12.30
2019-05-10T20:05:45.327Z,12.30
2019-05-10T20:08:16.659Z,12.30
2019-05-10T20:10:47.643Z,12.20
2019-05-10T20:13:18.956Z,12.20
2019-05-10T20:15:50.911Z,12.10
2019-05-10T20:18:22.351Z,12.10
2019-05-10T20:20:53.985Z,12.00
2019-05-10T20:23:25.271Z,12.00
2019-05-10T20:25:59.202Z,12.00
2019-05-10T20:28:28.987Z,11.90
2019-05-10T20:31:00.247Z,11.90
2019-05-10T20:33:31.235Z,11.80
2019-05-10T20:36:02.395Z,11.70
2019-05-10T20:38:33.719Z,11.70
2019-05-10T20:41:04.855Z,11.60
2019-05-10T20:43:36.115Z,11.50
2019-05-10T20:46:07.341Z,11.40
2019-05-10T20:48:38.535Z,11.40
2019-05-10T20:51:09.743Z,11.30
2019-05-10T20:53:41.223Z,11.20
2019-05-10T20:56:12.787Z,11.20
2019-05-10T20:58:44.059Z,11.10
2019-05-10T21:01:15.247Z,11.10
2019-05-10T21:03:46.595Z,11.10
2019-05-10T21:06:18.027Z,11.00
2019-05-10T21:08:49.257Z,11.00
2019-05-10T21:11:20.324Z,11.00
2019-05-10T21:13:52.063Z,11.00
2019-05-10T21:16:23.079Z,10.90
2019-05-10T21:18:54.391Z,10.90
2019-05-10T21:21:26.359Z,10.90
2019-05-10T21:23:57.643Z,10.90
2019-05-10T21:26:28.862Z,10.90
2019-05-10T21:28:59.763Z,10.90
2019-05-10T21:31:30.943Z,10.80
2019-05-10T21:34:09.589Z,10.80
2019-05-10T21:36:35.455Z,10.70
2019-05-10T21:39:08.231Z,10.70
2019-05-10T21:41:39.420Z,10.60
2019-05-10T21:44:10.550Z,10.60
2019-05-10T21:46:42.466Z,10.50
2019-05-10T21:49:13.546Z,10.40
2019-05-10T21:51:44.967Z,10.40
2019-05-10T21:54:16.283Z,10.30
2019-05-10T21:56:47.989Z,10.30
2019-05-10T21:59:18.739Z,10.30
2019-05-10T22:01:49.823Z,10.20
2019-05-10T22:04:20.691Z,10.20
2019-05-10T22:06:52.160Z,10.20
2019-05-10T22:09:24.080Z,10.20
2019-05-10T22:11:55.222Z,10.10
2019-05-10T22:14:26.343Z,10.10
2019-05-10T22:16:57.219Z,10.10
2019-05-10T22:19:28.307Z,10.10
2019-05-10T22:21:59.399Z,10.00
2019-05-10T22:24:30.456Z,10.00
2019-05-10T22:27:01.269Z,10.00
2019-05-10T22:29:33.059Z,9.90
2019-05-10T22:32:04.380Z,9.90
2019-05-10T22:34:35.347Z,9.90
2019-05-10T22:37:06.539Z,9.80
2019-05-10T22:39:37.709Z,9.80
2019-05-10T22:42:08.775Z,9.70
2019-05-10T22:44:40.323Z,9.80
2019-05-10T22:47:11.538Z,9.70
2019-05-10T22:49:42.742Z,9.70
2019-05-10T22:52:13.702Z,9.60
2019-05-10T22:54:44.451Z,9.60
2019-05-10T22:57:15.687Z,9.60
2019-05-10T22:59:46.795Z,9.60
2019-05-10T23:02:17.975Z,9.60
2019-05-10T23:04:49.159Z,9.50
2019-05-10T23:07:20.239Z,9.50
2019-05-10T23:09:51.462Z,9.50
2019-05-10T23:12:22.828Z,9.50
2019-05-10T23:14:54.034Z,9.50
2019-05-10T23:17:25.154Z,9.50
2019-05-10T23:19:56.267Z,9.50
2019-05-10T23:22:27.054Z,9.40
2019-05-10T23:24:58.119Z,9.40
2019-05-10T23:27:29.242Z,9.40
2019-05-10T23:30:00.315Z,9.30
2019-05-10T23:32:31.586Z,9.30
2019-05-10T23:35:02.483Z,9.30
2019-05-10T23:37:33.523Z,9.30
2019-05-10T23:40:04.763Z,9.20
2019-05-10T23:42:35.768Z,9.20
2019-05-10T23:45:07.525Z,9.20
2019-05-10T23:47:38.502Z,9.20
2019-05-10T23:50:10.293Z,9.10
2019-05-10T23:52:41.310Z,9.00
2019-05-10T23:55:12.540Z,9.00
2019-05-10T23:57:43.690Z,8.90
